• Join FlightAware (Why Join?)
  • Login
  • US Flag 
03:45PM EDT


 

Airport Tracker/Info


-or-


 

Live Flight TrackerFlight Track Log ✈ N111YA ✈ 14-Jun-2013 ✈ KSPI - KJVY

Flight Track Log - Related Links

Times and Time Zones

All times are in EDT time to prevent confusion due to time zone crossing. See the N111YA flight status page for this flight to view local times or setup timezone preferences in your user account.

Time Position Orientation Groundspeed Altitude Reporting Facility
EDT Latitude Longitude Course Direction KTS MPH feet Rate Location/Type
11:46PM 39.8017 -89.4692 113° Southeast 270 311 9,700  Level Kansas City Center
11:47PM 39.7719 -89.3678 111° Southeast 294 338 12,700 2,700 Climbing Kansas City Center
11:48PM 39.7333 -89.2597 115° Southeast 319 367 15,100 2,340 Climbing Kansas City Center
11:49PM 39.6961 -89.1422 112° Southeast 342 394 17,600 2,040 Climbing Kansas City Center
11:50PM 39.6550 -89.0200 114° Southeast 361 415 19,400 1,680 Climbing Kansas City Center
11:51PM 39.6546 -89.1427 113° Southeast  Level Estimated
11:51PM 39.6117 -88.8892 113° Southeast 386 444 21,100  Level Kansas City Center
11:52PM 39.6164 -89.0359 113° Southeast  Level Estimated
11:52PM 39.5675 -88.7542 113° Southeast 401 461 22,700  Level Kansas City Center
11:53PM 39.5217 -88.6169 113° Southeast 412 474 24,400 1,560 Climbing Kansas City Center
11:55PM 39.4736 -88.4728 113° Southeast 422 486 26,000 1,260 Climbing Kansas City Center
11:56PM 39.4258 -88.3292 113° Southeast 428 493 27,000 540 Climbing Kansas City Center
11:56PM 39.3728 -88.1764 114° Southeast 454 522 27,000  Level Indianapolis Center
11:57PM 39.3222 -88.0281 114° Southeast 455 524 27,000  Level Indianapolis Center
11:58PM 39.2694 -87.8772 114° Southeast 458 527 27,000  Level Indianapolis Center
11:59PM 39.2181 -87.7239 113° Southeast 461 531 27,000  Level Indianapolis Center
12:00AM 39.1847 -87.5692 105° East 465 535 27,000  Level Indianapolis Center
12:01AM 39.1903 -87.4103 87° East 447 514 27,000  Level Indianapolis Center
12:02AM 39.1972 -87.2494 87° East 451 519 27,000  Level Indianapolis Center
12:03AM 39.2033 -87.0878 87° East 453 521 27,000 -540 Level Indianapolis Center
12:04AM 39.2122 -86.9308 86° East 444 511 26,000 -1,440 Descending Indianapolis Center
12:05AM 39.2036 -86.7808 94° East 438 504 24,100 -2,280 Descending Indianapolis Center
12:06AM 39.1053 -86.6650 138° Southeast 442 509 21,500 -2,460 Descending Indianapolis Center
12:07AM 39.0011 -86.5678 144° Southeast 429 494 19,200 -1,680 Descending Indianapolis Center
12:09AM 38.9178 -86.4892 144° Southeast 382 440 18,100 -1,500 Descending Indianapolis Center
12:10AM 38.8436 -86.4214 145° Southeast 356 410 16,200 -2,040 Descending Indianapolis Center
12:11AM 38.7661 -86.3503 144° Southeast 346 398 14,100 -2,160 Descending Indianapolis Center
12:12AM 38.6956 -86.2789 142° Southeast 330 380 11,900 -2,160 Descending Indianapolis Center
12:13AM 38.6433 -86.1889 127° Southeast 320 368 9,800 -1,980 Descending Indianapolis Center
12:14AM 38.5914 -86.1039 128° Southeast 309 356 8,000 -1,860 Descending Indianapolis Center
12:15AM 38.5414 -86.0225 128° Southeast 296 341 6,100 -1,620 Descending Indianapolis Center
12:16AM 38.4894 -85.9372 128° Southeast 287 330 4,800 -1,320 Descending Indianapolis Center